Big Trout Lake Airport
CYTL : rendu visible

Aérodrome :











RETROUVEZ-NOUS SUR...

 
LOGIN :

S'inscrire | Disclaimer

   EN    FR    IT 

 









Légende :    VFR   VFR Marginal   IFR   IFR Intensif   IFR Très Intensif
Visi : 
Plafond : 
>= 8 km
>= 3000ft
5 à 8 km
1000 à 3000 ft
1500m à 5 km
500 à 1000 ft
800 à 1500m
200 à 500 ft
< 800m
< 200 ft
Symboles :   Orages  Brouillard  Fortes neiges  Fortes précipitations  Vent > 20 kt






- Altitude de l'aérodrome : 729 ft
- Code IATA : YTL


CYTL - Big Trout Lake

DERNIER METAR :
  • 071400Z AUTO 13011G17KT 9SM CLR M05/M11 A2978 RMK SLP103

METARs EXPIRÉS :
  • 071300Z AUTO 12009G16KT 090V160 9SM CLR M08/M12 A2980 RMK PRESFR SLP111
  • 071200Z AUTO 12007KT 9SM CLR M09/M12 A2983 RMK SLP120

TAF TAF CYTL
Valide du 07 à 14h jusqu'au 08 à 02h UTC


071339Z 0714/0802 12010KT P6SM BKN200
FM071500 12010G20KT P6SM BKN080 BKN140
TEMPO 0715/0717 5SM -SN
FM071700 12015G25KT P6SM -SN OVC050
TEMPO 0717/0718 11/2SM -SN OVC020
FM071800 12015G25KT 11/2SM -SN VV010
TEMPO 0718/0724 4SM -SN OVC020
FM080000 13008KT 2SM -SN OVC008
TEMPO 0800/0802 5SM -SN OVC012
PROB30 0800/0802 2SM -FZDZ -SN BR OVC006 RMK FCST BASED ON AUTO OBS. NXT FCST BY 072000Z



MET'MAP, la Météo Aéronautique d'un coup d'oeil ! - Copyright ORBIFLY Décembre 2007 - Disclaimer

ORBIFLY MET'MAP TEAM :

Programmation & Développement : Alexandra Zaïnal
Sur une idée originale de : Baudouin d'Aumeries
Assistance à la programmation : Marc-Olivier Méhu
Soutien technique & logistique : Manuel Goepfert

Contact : metmap@orbifly.com




SOURCES & CREDITS :

   NOAA       Earth
Advisory